createdAt,value
2023-01-17T00:01:13.347Z,95022.16
2023-01-17T00:03:58.908Z,95026.56
2023-01-17T00:06:44.290Z,95025.38
2023-01-17T00:09:29.656Z,95001.03
2023-01-17T00:11:56.620Z,95048.53
2023-01-17T00:14:23.227Z,95037.22
2023-01-17T00:16:49.753Z,95039.22
2023-01-17T00:19:34.920Z,95049.66
2023-01-17T00:22:20.057Z,95051.66
2023-01-17T00:25:05.146Z,95044.34
2023-01-17T00:27:31.684Z,95067.84
2023-01-17T00:29:58.108Z,95034.00
2023-01-17T00:32:24.583Z,95053.53
2023-01-17T00:34:51.106Z,95058.84
2023-01-17T00:37:17.534Z,95057.50
2023-01-17T00:39:43.979Z,95082.06
2023-01-17T00:42:10.446Z,95067.69
2023-01-17T00:44:55.608Z,95071.72
2023-01-17T00:47:40.508Z,95068.50
2023-01-17T00:50:25.607Z,95080.75
2023-01-17T00:53:10.682Z,95082.63
2023-01-17T00:55:55.734Z,95065.13
2023-01-17T00:58:40.966Z,95094.88
2023-01-17T01:01:26.217Z,95082.94
2023-01-17T01:04:11.832Z,95084.53
2023-01-17T01:06:56.961Z,95102.41
2023-01-17T01:09:42.106Z,95112.00
2023-01-17T01:12:27.430Z,95100.41
2023-01-17T01:15:12.591Z,95118.50
2023-01-17T01:17:57.495Z,95117.66
2023-01-17T01:20:42.967Z,95132.53
2023-01-17T01:23:28.018Z,95115.53
2023-01-17T01:26:13.220Z,95135.84
2023-01-17T01:28:58.230Z,95144.16
2023-01-17T01:31:43.414Z,95136.91
2023-01-17T01:34:09.957Z,95124.75
2023-01-17T01:36:36.491Z,95155.78
2023-01-17T01:39:03.110Z,95153.78
2023-01-17T01:41:29.625Z,95141.66
2023-01-17T01:43:56.125Z,95145.03
2023-01-17T01:46:30.437Z,95147.41
2023-01-17T01:49:02.062Z,95127.53
2023-01-17T01:51:31.944Z,95151.03
2023-01-17T01:54:05.102Z,95155.53
2023-01-17T01:56:31.687Z,95146.22
2023-01-17T01:58:58.218Z,95153.09
2023-01-17T02:01:24.903Z,95163.06
2023-01-17T02:03:51.462Z,95147.03
2023-01-17T02:06:21.105Z,95158.41
2023-01-17T02:08:47.933Z,95154.34
2023-01-17T02:11:14.739Z,95153.16
2023-01-17T02:13:41.241Z,95153.53
2023-01-17T02:16:26.609Z,95159.69
2023-01-17T02:19:07.854Z,95153.97
2023-01-17T02:21:37.574Z,95149.09
2023-01-17T02:25:00.989Z,95151.03
2023-01-17T02:27:32.916Z,95119.84
2023-01-17T02:30:20.855Z,95156.16
2023-01-17T02:33:11.649Z,95155.53
2023-01-17T02:35:54.710Z,95138.06
2023-01-17T02:38:47.360Z,95151.91
2023-01-17T02:41:16.999Z,95150.88
2023-01-17T02:43:43.483Z,95163.41
2023-01-17T02:46:10.104Z,95165.81
2023-01-17T02:48:36.969Z,95163.50
2023-01-17T02:51:19.350Z,95166.66
2023-01-17T02:54:18.042Z,95158.09
2023-01-17T02:57:13.801Z,95163.50
2023-01-17T03:00:19.567Z,95174.34
2023-01-17T03:03:12.305Z,95175.09
2023-01-17T03:06:11.802Z,95175.47
2023-01-17T03:08:40.284Z,95159.31
2023-01-17T03:11:10.346Z,95173.41
2023-01-17T03:13:37.008Z,95177.59
2023-01-17T03:16:06.422Z,95188.50
2023-01-17T03:18:32.974Z,95188.06
2023-01-17T03:20:59.453Z,95182.72
2023-01-17T03:23:26.036Z,95186.28
2023-01-17T03:25:52.561Z,95185.88
2023-01-17T03:28:19.093Z,95179.03
2023-01-17T03:30:45.681Z,95153.34
2023-01-17T03:33:12.170Z,95179.81
2023-01-17T03:35:38.685Z,95189.44
2023-01-17T03:38:05.188Z,95185.16
2023-01-17T03:40:31.689Z,95198.19
2023-01-17T03:42:58.137Z,95178.56
2023-01-17T03:45:24.689Z,95195.28
2023-01-17T03:47:51.238Z,95207.06
2023-01-17T03:50:17.805Z,95217.81
2023-01-17T03:52:44.353Z,95210.75
2023-01-17T03:55:10.840Z,95209.59
2023-01-17T03:57:37.358Z,95199.38
2023-01-17T04:00:04.237Z,95214.09
2023-01-17T04:02:30.745Z,95214.09
2023-01-17T04:04:57.290Z,95219.09
2023-01-17T04:07:23.824Z,95215.09
2023-01-17T04:09:50.300Z,95195.38
2023-01-17T04:12:16.771Z,95210.81
2023-01-17T04:14:43.250Z,95207.66
2023-01-17T04:17:12.580Z,95197.09
2023-01-17T04:19:39.064Z,95219.41
2023-01-17T04:22:05.626Z,95213.16
2023-01-17T04:24:32.185Z,95199.09
2023-01-17T04:26:58.788Z,95225.66
2023-01-17T04:29:25.381Z,95230.34
2023-01-17T04:31:51.962Z,95217.13
2023-01-17T04:34:18.560Z,95232.16
2023-01-17T04:36:45.164Z,95232.16
2023-01-17T04:39:11.718Z,95237.28
2023-01-17T04:41:38.338Z,95240.66
2023-01-17T04:44:04.932Z,95234.16
2023-01-17T04:46:31.901Z,95234.88
2023-01-17T04:48:59.221Z,95233.97
2023-01-17T04:51:25.825Z,95237.78
2023-01-17T04:53:52.375Z,95224.38
2023-01-17T04:56:19.721Z,95235.81
2023-01-17T04:58:46.253Z,95236.16
2023-01-17T05:01:12.901Z,95223.38
2023-01-17T05:03:39.601Z,95230.53
2023-01-17T05:06:06.274Z,95230.44
2023-01-17T05:08:34.206Z,95236.50
2023-01-17T05:11:04.591Z,95237.97
2023-01-17T05:13:34.850Z,95237.72
2023-01-17T05:16:05.214Z,95206.88
2023-01-17T05:18:33.714Z,95248.56
2023-01-17T05:21:06.437Z,95246.69
2023-01-17T05:23:34.700Z,95252.81
2023-01-17T05:26:04.185Z,95250.84
2023-01-17T05:28:31.787Z,95247.69
2023-01-17T05:31:00.353Z,95251.72
2023-01-17T05:33:27.072Z,95258.44
2023-01-17T05:35:53.637Z,95264.28
2023-01-17T05:38:23.694Z,95264.81
2023-01-17T05:40:50.321Z,95271.88
2023-01-17T05:43:16.894Z,95255.56
2023-01-17T05:45:43.465Z,95274.94
2023-01-17T05:48:09.972Z,95271.53
2023-01-17T05:50:37.260Z,95282.94
2023-01-17T05:53:03.687Z,95278.41
2023-01-17T05:55:30.360Z,95284.72
2023-01-17T05:57:56.914Z,95283.50
2023-01-17T06:00:23.600Z,95292.50
2023-01-17T06:02:50.259Z,95291.28
2023-01-17T06:05:17.004Z,95292.56
2023-01-17T06:07:44.925Z,95294.53
2023-01-17T06:10:14.845Z,95280.97
2023-01-17T06:12:42.250Z,95293.69
2023-01-17T06:15:09.044Z,95299.47
2023-01-17T06:17:35.956Z,95294.25
2023-01-17T06:20:04.098Z,95294.34
2023-01-17T06:22:30.597Z,95301.06
2023-01-17T06:24:57.089Z,95309.66
2023-01-17T06:27:23.652Z,95308.03
2023-01-17T06:29:51.349Z,95286.88
2023-01-17T06:32:17.829Z,95305.94
2023-01-17T06:34:44.330Z,95308.09
2023-01-17T06:37:10.866Z,95326.06
2023-01-17T06:39:37.369Z,95335.41
2023-01-17T06:42:03.907Z,95328.72
2023-01-17T06:44:30.445Z,95332.94
2023-01-17T06:46:57.013Z,95335.56
2023-01-17T06:49:23.581Z,95336.19
2023-01-17T06:51:50.519Z,95336.22
2023-01-17T06:54:17.031Z,95336.38
2023-01-17T06:56:43.496Z,95327.66
2023-01-17T06:59:10.026Z,95321.13
2023-01-17T07:01:36.756Z,95324.72
2023-01-17T07:04:04.216Z,95297.72
2023-01-17T07:06:30.932Z,95328.38
2023-01-17T07:08:57.513Z,95309.53
2023-01-17T07:11:24.075Z,95272.97
2023-01-17T07:13:50.592Z,95315.13
2023-01-17T07:16:17.220Z,95318.06
2023-01-17T07:18:43.788Z,95315.75
2023-01-17T07:21:14.592Z,95305.97
2023-01-17T07:23:41.245Z,95320.31
2023-01-17T07:26:07.838Z,95292.25
2023-01-17T07:28:34.339Z,95318.31
2023-01-17T07:31:10.311Z,95323.91
2023-01-17T07:33:37.324Z,95323.28
2023-01-17T07:36:07.435Z,95315.13
2023-01-17T07:38:34.527Z,95288.34
2023-01-17T07:41:01.205Z,95317.69
2023-01-17T07:43:27.737Z,95310.88
2023-01-17T07:45:54.297Z,95313.16
2023-01-17T07:48:22.684Z,95313.75
2023-01-17T07:50:55.950Z,95317.97
2023-01-17T07:53:23.684Z,95314.72
2023-01-17T07:55:50.184Z,95275.28
2023-01-17T07:58:16.772Z,95311.41
2023-01-17T08:00:44.822Z,95307.13
2023-01-17T08:03:15.325Z,95298.13
2023-01-17T08:05:42.574Z,95282.47
2023-01-17T08:08:09.301Z,95292.81
2023-01-17T08:10:36.065Z,95297.00
2023-01-17T08:13:02.664Z,95294.38
2023-01-17T08:15:29.202Z,95277.53
2023-01-17T08:17:57.676Z,95297.19
2023-01-17T08:20:27.469Z,95290.00
2023-01-17T08:22:55.719Z,95290.19
2023-01-17T08:25:25.882Z,95302.25
2023-01-17T08:27:57.976Z,95300.81
2023-01-17T08:30:25.073Z,95295.25
2023-01-17T08:32:51.625Z,95291.38
2023-01-17T08:35:20.404Z,95292.50
2023-01-17T08:37:47.814Z,95298.09
2023-01-17T08:40:17.014Z,95283.19
2023-01-17T08:42:44.279Z,95285.47
2023-01-17T08:45:11.423Z,95297.91
2023-01-17T08:47:37.982Z,95262.59
2023-01-17T08:50:06.754Z,95296.38
2023-01-17T08:52:33.442Z,95299.34
2023-01-17T08:54:59.957Z,95298.19
2023-01-17T08:57:26.558Z,95299.06
2023-01-17T08:59:53.059Z,95298.34
2023-01-17T09:02:19.721Z,95295.13
2023-01-17T09:04:47.201Z,95289.78
2023-01-17T09:07:14.265Z,95274.69
2023-01-17T09:09:40.743Z,95277.94
2023-01-17T09:12:07.260Z,95264.38
2023-01-17T09:14:34.599Z,95266.81
2023-01-17T09:17:01.244Z,95279.41
2023-01-17T09:19:27.751Z,95279.25
2023-01-17T09:21:54.214Z,95285.16
2023-01-17T09:24:20.764Z,95281.13
2023-01-17T09:26:47.260Z,95256.97
2023-01-17T09:29:17.667Z,95253.81
2023-01-17T09:31:48.103Z,95285.31
2023-01-17T09:34:14.636Z,95283.59
2023-01-17T09:36:41.759Z,95281.78
2023-01-17T09:39:10.145Z,95269.81
2023-01-17T09:41:57.941Z,95287.88
2023-01-17T09:44:33.537Z,95285.28
2023-01-17T09:47:03.533Z,95286.50
2023-01-17T09:49:42.290Z,95291.78
2023-01-17T09:52:10.087Z,95291.22
2023-01-17T09:54:41.388Z,95298.56
2023-01-17T09:57:32.522Z,95304.13
2023-01-17T10:00:23.032Z,95301.69
2023-01-17T10:03:07.740Z,95292.75
2023-01-17T10:05:52.614Z,95297.06
2023-01-17T10:08:39.830Z,95291.31
2023-01-17T10:11:24.841Z,95284.59
2023-01-17T10:13:54.207Z,95279.41
2023-01-17T10:16:27.136Z,95279.69
2023-01-17T10:18:56.687Z,95274.16
2023-01-17T10:21:29.916Z,95240.50
2023-01-17T10:24:16.324Z,95264.28
2023-01-17T10:26:53.561Z,95241.84
2023-01-17T10:29:21.194Z,95235.03
2023-01-17T10:31:54.203Z,95219.28
2023-01-17T10:34:25.430Z,95222.38
2023-01-17T10:36:54.066Z,95214.72
2023-01-17T10:39:24.842Z,95208.19
2023-01-17T10:41:55.772Z,95188.63
2023-01-17T10:44:33.320Z,95195.81
2023-01-17T10:47:12.273Z,95187.44
2023-01-17T10:49:40.124Z,95177.75
2023-01-17T10:52:06.492Z,95170.47
2023-01-17T10:54:51.450Z,95149.50
2023-01-17T10:57:25.295Z,95157.59
2023-01-17T10:59:52.302Z,95140.78
2023-01-17T11:02:24.858Z,95148.81
2023-01-17T11:04:54.520Z,95174.75
2023-01-17T11:07:24.623Z,95179.66
2023-01-17T11:09:55.970Z,95175.16
2023-01-17T11:12:28.463Z,95154.97
2023-01-17T11:14:58.694Z,95159.13
2023-01-17T11:17:25.720Z,95149.72
2023-01-17T11:19:52.291Z,95157.03
2023-01-17T11:22:18.918Z,95138.38
2023-01-17T11:24:53.243Z,95157.13
2023-01-17T11:27:24.592Z,95130.66
2023-01-17T11:30:03.516Z,95141.44
2023-01-17T11:32:32.147Z,95130.31
2023-01-17T11:35:04.802Z,95127.47
2023-01-17T11:37:31.353Z,95114.69
2023-01-17T11:40:08.563Z,95100.53
2023-01-17T11:42:38.300Z,95131.38
2023-01-17T11:45:27.126Z,95116.34
2023-01-17T11:48:08.553Z,95095.66
2023-01-17T11:50:36.022Z,95104.94
2023-01-17T11:53:29.781Z,95095.63
2023-01-17T11:55:57.457Z,95085.88
2023-01-17T11:58:24.389Z,95090.06
2023-01-17T12:01:00.999Z,95086.56
2023-01-17T12:03:45.314Z,95087.97
2023-01-17T12:06:26.670Z,95082.44
2023-01-17T12:08:56.205Z,95095.81
2023-01-17T12:11:29.422Z,95087.72
2023-01-17T12:14:21.205Z,95072.31
2023-01-17T12:16:56.752Z,95080.41
2023-01-17T12:19:51.261Z,95071.13
2023-01-17T12:22:33.710Z,95065.34
2023-01-17T12:25:14.884Z,95071.72
2023-01-17T12:28:04.468Z,95059.34
2023-01-17T12:30:52.493Z,95069.28
2023-01-17T12:33:39.072Z,95036.88
2023-01-17T12:36:17.472Z,95050.84
2023-01-17T12:38:44.926Z,95045.38
2023-01-17T12:41:26.686Z,95037.28
2023-01-17T12:43:58.730Z,95048.63
2023-01-17T12:46:28.716Z,95062.59
2023-01-17T12:49:23.625Z,95052.88
2023-01-17T12:51:53.505Z,95042.53
2023-01-17T12:54:36.821Z,95049.22
2023-01-17T12:57:13.950Z,95043.38
2023-01-17T12:59:48.616Z,95040.53
2023-01-17T13:02:36.704Z,95044.94
2023-01-17T13:05:23.522Z,95037.69
2023-01-17T13:07:50.443Z,95031.78
2023-01-17T13:10:44.346Z,95016.97
2023-01-17T13:13:43.473Z,95030.34
2023-01-17T13:16:16.565Z,95023.88
2023-01-17T13:18:47.348Z,95017.19
2023-01-17T13:21:40.213Z,95014.56
2023-01-17T13:24:24.710Z,95009.91
2023-01-17T13:26:51.148Z,95010.50
2023-01-17T13:29:46.409Z,94997.97
2023-01-17T13:32:47.065Z,95003.44
2023-01-17T13:35:29.142Z,94998.97
2023-01-17T13:38:04.435Z,94998.56
2023-01-17T13:40:53.668Z,94984.97
2023-01-17T13:43:23.996Z,94992.25
2023-01-17T13:45:57.943Z,94966.34
2023-01-17T13:48:26.260Z,94980.91
2023-01-17T13:51:02.795Z,94975.06
2023-01-17T13:53:39.383Z,94983.16
2023-01-17T13:56:25.567Z,94977.47
2023-01-17T13:58:54.489Z,94973.22
2023-01-17T14:01:24.195Z,94972.41
2023-01-17T14:03:53.343Z,94957.84
2023-01-17T14:06:45.535Z,94978.91
2023-01-17T14:09:37.853Z,94983.75
2023-01-17T14:12:16.020Z,94982.47
2023-01-17T14:14:45.185Z,94980.91
2023-01-17T14:17:17.761Z,94972.81
2023-01-17T14:19:47.698Z,94955.38
2023-01-17T14:22:20.135Z,94965.72
2023-01-17T14:25:12.182Z,94950.53
2023-01-17T14:28:01.605Z,94956.19
2023-01-17T14:30:34.205Z,94948.88
2023-01-17T14:33:05.755Z,94964.47
2023-01-17T14:35:34.136Z,94959.84
2023-01-17T14:38:02.973Z,94957.00
2023-01-17T14:40:30.860Z,94944.41
2023-01-17T14:43:28.554Z,94958.97
2023-01-17T14:45:59.300Z,94952.03
2023-01-17T14:48:25.865Z,94958.97
2023-01-17T15:06:26.757Z,94914.31
2023-01-17T15:08:56.087Z,94906.59
2023-01-17T15:11:25.012Z,94902.44
2023-01-17T15:13:54.836Z,94897.59
2023-01-17T15:16:23.086Z,94897.97
2023-01-17T15:18:49.921Z,94912.50
2023-01-17T15:21:19.269Z,94918.88
2023-01-17T15:23:55.886Z,94914.00
2023-01-17T15:26:24.369Z,94924.09
2023-01-17T15:28:51.737Z,94920.00
2023-01-17T15:31:25.626Z,94920.56
2023-01-17T15:33:54.136Z,94918.66
2023-01-17T15:36:20.487Z,94912.84
2023-01-17T15:38:56.389Z,94906.34
2023-01-17T15:41:24.291Z,94903.34
2023-01-17T15:43:57.552Z,94903.09
2023-01-17T15:46:53.392Z,94902.84
2023-01-17T15:49:21.303Z,94891.50
2023-01-17T15:51:51.791Z,94893.63
2023-01-17T15:54:41.920Z,94896.63
2023-01-17T15:57:30.968Z,94891.88
2023-01-17T15:59:58.505Z,94883.16
2023-01-17T16:02:30.811Z,94888.72
2023-01-17T16:04:58.007Z,94888.91
2023-01-17T16:07:34.208Z,94882.78
2023-01-17T16:10:15.585Z,94882.41
2023-01-17T16:12:42.832Z,94888.34
2023-01-17T16:15:13.545Z,94849.56
2023-01-17T16:17:41.016Z,94884.28
2023-01-17T16:20:12.015Z,94871.78
2023-01-17T16:22:38.508Z,94886.69
2023-01-17T16:25:15.224Z,94875.78
2023-01-17T16:27:43.109Z,94877.63
2023-01-17T16:30:11.219Z,94881.56
2023-01-17T16:32:37.856Z,94875.09
2023-01-17T16:35:06.911Z,94868.50
2023-01-17T16:37:33.447Z,94863.25
2023-01-17T16:40:00.215Z,94860.19
2023-01-17T16:42:28.562Z,94854.59
2023-01-17T16:44:55.173Z,94848.72
2023-01-17T16:47:22.029Z,94843.13
2023-01-17T16:49:48.523Z,94847.03
2023-01-17T16:52:15.013Z,94839.47
2023-01-17T16:54:41.558Z,94831.69
2023-01-17T16:57:08.061Z,94833.75
2023-01-17T16:59:49.656Z,94816.09
2023-01-17T17:02:18.625Z,94823.81
2023-01-17T17:04:45.400Z,94836.75
2023-01-17T17:07:11.919Z,94842.09
2023-01-17T17:09:38.565Z,94841.75
2023-01-17T17:12:05.453Z,94844.56
2023-01-17T17:14:31.974Z,94843.06
2023-01-17T17:17:00.838Z,94839.22
2023-01-17T17:19:30.063Z,94839.44
2023-01-17T17:21:59.775Z,94832.06
2023-01-17T17:24:26.395Z,94824.38
2023-01-17T17:26:52.931Z,94836.19
2023-01-17T17:29:19.642Z,94840.44
2023-01-17T17:31:46.351Z,94846.56
2023-01-17T17:34:13.534Z,94850.38
2023-01-17T17:36:40.168Z,94840.84
2023-01-17T17:39:09.074Z,94836.94
2023-01-17T17:41:36.373Z,94840.84
2023-01-17T17:44:03.512Z,94843.03
2023-01-17T17:46:30.120Z,94836.25
2023-01-17T17:48:57.106Z,94848.34
2023-01-17T17:51:34.222Z,94849.88
2023-01-17T17:54:05.265Z,94852.78
2023-01-17T17:56:32.070Z,94852.78
2023-01-17T17:58:58.979Z,94854.00
2023-01-17T18:01:25.697Z,94837.72
2023-01-17T18:03:52.458Z,94851.91
2023-01-17T18:06:19.283Z,94859.94
2023-01-17T18:08:45.889Z,94858.50
2023-01-17T18:11:18.558Z,94866.13
2023-01-17T18:13:52.982Z,94875.25
2023-01-17T18:16:24.427Z,94883.09
2023-01-17T18:18:52.586Z,94880.81
2023-01-17T18:21:24.993Z,94880.09
2023-01-17T18:24:02.595Z,94885.44
2023-01-17T18:26:33.588Z,94886.06
2023-01-17T18:29:00.300Z,94874.03
2023-01-17T18:31:27.548Z,94888.09
2023-01-17T18:33:54.518Z,94874.41
2023-01-17T18:36:21.255Z,94895.47
2023-01-17T18:38:47.961Z,94892.13
2023-01-17T18:41:16.424Z,94891.06
2023-01-17T18:43:42.959Z,94887.34
2023-01-17T18:46:09.994Z,94881.19
2023-01-17T18:48:36.618Z,94873.53
2023-01-17T18:51:05.191Z,94881.31
2023-01-17T18:53:32.320Z,94878.50
2023-01-17T18:56:00.099Z,94885.88
2023-01-17T18:58:27.421Z,94885.28
2023-01-17T19:00:54.085Z,94895.19
2023-01-17T19:03:25.791Z,94897.06
2023-01-17T19:05:52.331Z,94896.28
2023-01-17T19:08:18.839Z,94903.94
2023-01-17T19:10:45.378Z,94904.66
2023-01-17T19:13:11.937Z,94895.19
2023-01-17T19:15:38.753Z,94908.16
2023-01-17T19:18:05.433Z,94911.41
2023-01-17T19:20:31.951Z,94909.78
2023-01-17T19:22:58.467Z,94918.19
2023-01-17T19:25:25.620Z,94926.22
2023-01-17T19:27:52.963Z,94919.00
2023-01-17T19:30:19.733Z,94913.38
2023-01-17T19:32:48.884Z,94923.78
2023-01-17T19:35:15.987Z,94920.97
2023-01-17T19:37:46.721Z,94886.81
2023-01-17T19:40:14.463Z,94926.06
2023-01-17T19:42:41.129Z,94926.22
2023-01-17T19:45:12.239Z,94919.81
2023-01-17T19:47:39.496Z,94920.44
2023-01-17T19:50:08.384Z,94927.94
2023-01-17T19:52:35.575Z,94928.00
2023-01-17T19:55:02.486Z,94916.00
2023-01-17T19:57:34.844Z,94934.25
2023-01-17T20:00:02.026Z,94932.91
2023-01-17T20:02:28.739Z,94942.38
2023-01-17T20:04:55.330Z,94948.97
2023-01-17T20:07:21.979Z,94944.63
2023-01-17T20:09:48.446Z,94945.44
2023-01-17T20:12:14.981Z,94952.38
2023-01-17T20:14:41.533Z,94947.88
2023-01-17T20:17:07.997Z,94947.88
2023-01-17T20:19:34.530Z,94949.59
2023-01-17T20:22:01.555Z,94955.25
2023-01-17T20:24:28.112Z,94960.72
2023-01-17T20:26:54.717Z,94956.53
2023-01-17T20:29:21.281Z,94964.50
2023-01-17T20:31:52.328Z,94966.69
2023-01-17T20:34:19.697Z,94964.69
2023-01-17T20:36:46.418Z,94970.38
2023-01-17T20:39:13.756Z,94975.25
2023-01-17T20:41:41.361Z,94973.81
2023-01-17T20:44:10.472Z,94975.13
2023-01-17T20:46:40.653Z,94977.88
2023-01-17T20:49:09.829Z,94973.34
2023-01-17T20:51:39.954Z,94968.66
2023-01-17T20:54:07.552Z,94968.31
2023-01-17T20:56:37.849Z,94958.75
2023-01-17T20:59:09.465Z,94968.59
2023-01-17T21:01:36.630Z,94962.06
2023-01-17T21:04:03.210Z,94971.38
2023-01-17T21:06:30.508Z,94962.00
2023-01-17T21:08:57.012Z,94940.22
2023-01-17T21:11:25.124Z,94953.66
2023-01-17T21:13:51.863Z,94949.50
2023-01-17T21:16:20.308Z,94918.81
2023-01-17T21:18:50.638Z,94923.72
2023-01-17T21:21:19.130Z,94944.56
2023-01-17T21:23:45.757Z,94937.88
2023-01-17T21:26:13.545Z,94930.75
2023-01-17T21:28:41.470Z,94930.56
2023-01-17T21:31:23.122Z,94936.31
2023-01-17T21:33:52.023Z,94940.13
2023-01-17T21:36:19.206Z,94940.47
2023-01-17T21:38:52.649Z,94944.88
2023-01-17T21:41:20.544Z,94951.03
2023-01-17T21:43:47.321Z,94940.13
2023-01-17T21:46:13.901Z,94952.41
2023-01-17T21:48:40.640Z,94956.00
2023-01-17T21:51:07.321Z,94962.88
2023-01-17T21:53:37.405Z,94958.47
2023-01-17T21:56:22.992Z,94958.91
2023-01-17T21:58:53.680Z,94962.16
2023-01-17T22:01:24.954Z,94967.22
2023-01-17T22:03:59.091Z,94963.69
2023-01-17T22:06:32.585Z,94961.78
2023-01-17T22:08:59.343Z,94962.59
2023-01-17T22:11:26.730Z,94972.25
2023-01-17T22:13:53.349Z,94970.00
2023-01-17T22:16:23.324Z,94967.41
2023-01-17T22:18:50.104Z,94975.25
2023-01-17T22:21:21.180Z,94974.16
2023-01-17T22:23:52.515Z,94971.16
2023-01-17T22:26:19.988Z,94972.78
2023-01-17T22:28:46.542Z,94959.63
2023-01-17T22:31:21.204Z,94970.56
2023-01-17T22:33:52.370Z,94972.97
2023-01-17T22:36:20.111Z,94957.19
2023-01-17T22:38:46.865Z,94969.03
2023-01-17T22:41:16.023Z,94965.31
2023-01-17T22:43:44.553Z,94957.75
2023-01-17T22:46:12.436Z,94962.78
2023-01-17T22:48:39.140Z,94959.81
2023-01-17T22:51:10.126Z,94945.72
2023-01-17T22:53:44.259Z,94971.56
2023-01-17T22:56:12.564Z,94979.94
2023-01-17T22:58:42.123Z,94985.81
2023-01-17T23:01:10.894Z,94988.16
2023-01-17T23:03:37.661Z,94985.38
2023-01-17T23:06:11.748Z,94986.44
2023-01-17T23:08:38.747Z,94987.09
2023-01-17T23:11:38.867Z,94984.56
2023-01-17T23:14:11.881Z,94981.78
2023-01-17T23:16:58.247Z,94982.88
2023-01-17T23:19:25.555Z,94980.78
2023-01-17T23:22:15.782Z,94978.16
2023-01-17T23:24:45.645Z,94976.69
2023-01-17T23:28:03.796Z,94991.41
2023-01-17T23:30:35.385Z,94981.78
2023-01-17T23:33:12.428Z,94972.13
2023-01-17T23:35:42.247Z,94975.28
2023-01-17T23:38:31.196Z,94972.13
2023-01-17T23:41:26.328Z,94977.22
2023-01-17T23:43:56.513Z,94959.34
2023-01-17T23:46:24.006Z,94966.81
2023-01-17T23:48:50.760Z,94963.09
2023-01-17T23:51:17.374Z,94954.31
2023-01-17T23:53:43.856Z,94967.78
2023-01-17T23:56:30.600Z,94971.78
2023-01-17T23:58:57.646Z,94965.63
